EST – 14.08 – II stage – Tartu – Otepää – Valga

Date: 14.08.2020

Country: Estonia

Start: Tartu

Finish: Valga(EST)/Valka(LAT) – Border city

Distance: 175km

Course map on Google Maps: https://bit.ly/2BLp9eQ


 

Schedule:

  • 07:00 – 09:00 Breakfast in hotel
  • 11:00- 12:30 light lunch in hotel
  • 13:00 Handout of the Tour Radio transmitters (Starting area )
  • 13:00 -13:50 Signing of Starting list
  • 13:50 Convoy cars’ line-up
  • 14:00 Festiv start of Stage II in Tõrvandi (1,8 km)
  • 14:03 Technical Start of Stage II in Tartu (174,1 km)
  • 17:40- 18:10 Expected finish of Stage II in Valga
  • Doping control in Valga
  • 17:40 – 18:30 Returning of Tour Radio transmittersB47
  • 17:50 Awarding Ceremony (15 minutes after Leader’s finish)
  • 18:00 – 19:00 Shower in Valgamaa Kutseõppekeskus Loode str 3, Valga 68206
  • Transfer from Valga (EST) back to Tartu (EST) 85 km
  • 19:00 – 21:00 Dinner in the hotels

Course legend:

From start To go Turn Location/Direction Average speed
km km km/h km/h km/h
Ceremonial start at Estonian Agricultural Museum 48 45 42
3.7 Pargi 4, Ülenurme, 61714 14:00:00 14:00:00 14:00:00
0.0 173.6 Technical start on Tõrvandi-Roiu-Uniküla (Road 140) 14:08:00 14:08:00 14:08:00
3.6 170 Continue on Tõrvandi-Roiu-Uniküla road 14:12:30 14:12:48 14:13:09
7.5 166.1 Turn left onto Sooru-Kure (Road 269) 14:17:22 14:18:00 14:18:43
10.1 163.5 Turn right, onto Vana-Kastre – Roiu (Road 260) 14:20:37 14:21:28 14:22:26
12.5 161.1 Roiu Town  14:23:37 14:24:40 14:25:51
12.8 160.8 Turn left, Kesk street 14:24:00 14:25:04 14:26:17
14.6 159 Continue on Tõrvandi-Roiu-Uniküla road 14:26:15 14:27:28 14:28:51
14.7 158.9 Turn right onto very narrow road  14:26:23 14:27:36 14:29:00
16.7 156.9 Turn left onto Vana-Kastre – Roiu (Road 260) 14:28:52 14:30:16 14:31:51
19.7 153.9 Turn right onto Reola-Hammaste (Road 265)  14:32:37 14:34:16 14:36:09
20.1 153.5 Turn right onto Haaslava – Aadami – Uniküla (Road 262) 14:33:08 14:34:48 14:36:43
24.2 149.4 Turn right onto Roa tee  14:38:15 14:40:16 14:42:34
24.8 148.8 Turn left onto Vallamaja tee (very narrow road)  14:39:00 14:41:04 14:43:26
25.5 148.1 Turn left onto Tõrvandi-Roiu-Uniküla (Road 140) 14:39:52 14:42:00 14:44:26
32.3 141.3 Turn left onto Kaasiku street 14:48:23 14:51:04 14:54:09
34.4 139.2 1 st Intermediate Sprint in Ülenurme  14:51:00 14:53:52 14:57:09
34.9 138.7 Turn left onto Võru maantee 14:51:38 14:54:32 14:57:51
35.7 137.9 Turn right towards railway crossing 14:52:38 14:55:36 14:59:00
35.8 137.8 RAILWAY crossing  14:52:45 14:55:44 14:59:09
36.1 137.5 Turn left onto Tallinn-Tartu-Võru-Luhamaa (Road E263) 14:53:07 14:56:08 14:59:34
36.9 136.7 Turn left onto Põlva-Reola (Road 61) 14:54:07 14:57:12 15:00:43
52.1 121.5 Turn right onto Vooreküla-Puskaru (Road 115) 15:13:08 15:17:28 15:22:26
59.4 114.2 Narrow bridge 15:22:15 15:27:12 15:32:51
61.7 111.9 Narrow bridge 15:25:07 15:30:16 15:36:09
63.2 110.4 Narrow bridge 15:27:00 15:32:16 15:38:17
68.8 104.8 Turn right onto Põlva-Saverna (Road 89)  15:34:00 15:39:44 15:46:17
75.0 98.6 Turn right onto Piigaste-Sulaoja (Road 176) 15:41:45 15:48:00 15:55:09
79.4 94.2 Continue on Piigaste-Sulaoja (Road 176)  15:47:15 15:53:52 16:01:26
80.7 92.9 Turn left onto Tallinn-Tartu-Võru-Luhamaa (Road E263) 15:48:53 15:55:36 16:03:17
85.8 87.8 Turn right onto Saverna-Pilkuse (147) 15:55:15 16:02:24 16:10:34
85.9 87.7 Feeding Zone start 15:55:23 16:02:32 16:10:43
86.6 87 Feeding Zone end  15:56:15 16:03:28 16:11:43
91.1 82.5 Continue on Saverna-Pilkuse (147) 16:01:52 16:09:28 16:18:09
100.0 73.6 Turn right onto Rõngu-Otepää-Kanepi (Road 71) 16:13:00 16:21:20 16:30:51
101.3 72.3 Turn left towards Otepää 16:14:38 16:23:04 16:32:43
101.9 71.7 Otepää Town 16:15:23 16:23:52 16:33:34
102.3 71.3 Turn left onto Valga mnt 16:15:52 16:24:24 16:34:09
102.4 71.2 2nd Intermediate Sprint in Otepää 16:16:00 16:24:32 16:34:17
103.3 70.3 Right onto Otepää-Nüpli-Sihva 16:17:07 16:25:44 16:35:34
109.6 64 Turn left onto Otepää-Kääriku-Kurevere (Road 195) 16:25:00 16:34:08 16:44:34
110.3 63.3 Turn left onto Restu-Sihva (Road 180) 16:25:53 16:35:04 16:45:34
117.9 55.7 Turn right onto Tatra-Otepää-Sangaste (Road 46)  16:35:23 16:45:12 16:56:26
122.6 51 Turn right onto Võru-Kuigasti-Tõrva (Road 69) 16:41:15 16:51:28 17:03:09
122.9 50.7 Turn left onto Sangaste-Tõlliste (Road 72)  16:41:38 16:51:52 17:03:34
123.0 50.6 Sangaste town 16:41:45 16:52:00 17:03:43
123.4 50.2 Feeding Zone start 16:42:15 16:52:32 17:04:17
124.1 49.5 Feeding Zone end  16:43:08 16:53:28 17:05:17
131.6 42 Continue on Sangaste-Tõlliste (Road 72) 16:52:30 17:03:28 17:16:00
131.8 41.8 Turn left onto Laatre-Lüllemäe-Hargla (Road 114) 16:52:45 17:03:44 17:16:17
141.1 32.5 RAILWAY crossing  17:04:22 17:16:08 17:29:34
147.9 25.7 Lüllemäe town  17:12:52 17:25:12 17:39:17
148.1 25.5 Turn right onto Puurina-Lüllemäe-Litsmetsa (Road 201) 17:13:08 17:25:28 17:39:34
148.3 25.3 3rd Intermediate Sprint in Lüllemäe 17:13:22 17:25:44 17:39:51
163.2 10.4 Turn right onto Võru-Mõniste-Valga (Road 67) 17:32:00 17:45:36 18:01:09
166.8 6.8 Valga town  17:36:30 17:50:24 18:06:17
167.8 5.8 Turn right onto Lõuna street 17:37:45 17:51:44 18:07:43
168.5 5.1 Turn left onto Viadukti street 17:38:37 17:52:40 18:08:43
168.7 4.9 Tunnel  17:38:52 17:52:56 18:09:00
169.0 4.6 Tunnel 17:39:15 17:53:20 18:09:26
169.2 4.4 Turn right onto Karja Street 17:39:30 17:53:36 18:09:43
169.3 4.3 Turn left onto Petseri Street 17:39:38 17:53:44 18:09:51
169.7 3.9 Turn right onto Pikk Street  17:40:07 17:54:16 18:10:26
170.2 3.4 Straight from traffic lights  17:40:45 17:54:56 18:11:09
171.0 2.6 Turn left onto Tartu street  17:41:45 17:56:00 18:12:17
172.5 1.1 Turn right onto Viljandi street  17:43:38 17:58:00 18:14:26
173.6 0 FINISH on Viljandi street 17:45:00 17:59:28 18:16:00

Tour Supporters

Sponsors

Partners

Supporters